Time;durP1;ratioP1;P1;durP2;ratioP2;P2;SDS_P1;SDS_P2;PMS_P1;PMS_P2;Temp;Humidity;BMP_temperature;BMP_pressure;BME280_temperature;BME280_humidity;BME280_pressure;Samples;Min_cycle;Max_cycle;Signal;HPM_P1;HPM_P2
2022/10/07 00:00:55;;;;;;;8.20;6.40;;;15.00;36.30;;;;;;5027178;28;20490;-69
2022/10/07 00:03:24;;;;;;;11.03;7.27;;;15.00;36.20;;;;;;5030176;28;20447;-72
2022/10/07 00:06:00;;;;;;;9.20;6.60;;;15.00;36.20;;;;;;5036724;28;20509;-71
2022/10/07 00:08:28;;;;;;;12.03;7.47;;;15.00;36.40;;;;;;5023879;28;20502;-70
2022/10/07 00:10:56;;;;;;;12.17;6.43;;;15.00;36.10;;;;;;5030487;28;20461;-69
2022/10/07 00:13:23;;;;;;;12.50;6.70;;;15.00;36.20;;;;;;5029493;28;20475;-70
2022/10/07 00:15:50;;;;;;;10.87;7.73;;;15.00;36.40;;;;;;5029530;28;20484;-70
2022/10/07 00:18:17;;;;;;;12.73;7.10;;;15.00;36.30;;;;;;5020172;28;20454;-70
2022/10/07 00:20:43;;;;;;;11.23;7.63;;;15.00;36.50;;;;;;5026095;28;20455;-70
2022/10/07 00:23:10;;;;;;;12.57;8.27;;;15.00;36.40;;;;;;5039305;28;20990;-70
2022/10/07 00:25:38;;;;;;;12.00;7.40;;;15.00;36.20;;;;;;5030957;28;20772;-70
2022/10/07 00:28:05;;;;;;;10.60;7.43;;;15.00;36.20;;;;;;5021107;28;20551;-70
2022/10/07 00:30:32;;;;;;;11.67;7.67;;;15.00;36.30;;;;;;5020730;28;20463;-70
2022/10/07 00:32:59;;;;;;;12.97;7.33;;;15.00;36.20;;;;;;5028933;28;20462;-70
2022/10/07 00:35:26;;;;;;;11.17;6.27;;;15.00;36.30;;;;;;5040577;28;20478;-70
2022/10/07 00:37:53;;;;;;;10.80;7.10;;;15.00;36.30;;;;;;5032555;28;20457;-69
2022/10/07 00:40:20;;;;;;;8.83;6.13;;;14.90;36.50;;;;;;5015769;28;20471;-69
2022/10/07 00:42:48;;;;;;;9.40;7.57;;;14.90;36.50;;;;;;5028487;28;20465;-70
2022/10/07 00:45:18;;;;;;;12.90;7.37;;;15.00;36.40;;;;;;5022343;28;20488;-70
2022/10/07 00:47:46;;;;;;;9.80;7.53;;;15.00;36.50;;;;;;5024163;28;20540;-70
2022/10/07 00:50:18;;;;;;;10.87;6.90;;;14.90;36.50;;;;;;5015250;28;20528;-70
2022/10/07 00:52:49;;;;;;;13.97;6.93;;;14.90;36.40;;;;;;5022852;28;20467;-69
2022/10/07 00:55:19;;;;;;;10.20;6.40;;;14.90;36.60;;;;;;5022150;28;20487;-69
2022/10/07 00:57:49;;;;;;;10.00;6.73;;;14.90;36.40;;;;;;5025523;28;20486;-69
2022/10/07 01:00:16;;;;;;;11.50;7.63;;;14.90;36.40;;;;;;5023723;28;20450;-70
2022/10/07 01:02:43;;;;;;;9.47;7.30;;;14.90;36.60;;;;;;5034071;28;20469;-71
2022/10/07 01:05:13;;;;;;;12.20;7.43;;;14.90;36.70;;;;;;5029504;28;20475;-71
2022/10/07 01:07:40;;;;;;;10.40;8.00;;;14.90;36.80;;;;;;5031365;28;20875;-70
2022/10/07 01:10:10;;;;;;;10.23;7.20;;;14.90;36.70;;;;;;5028306;28;20501;-70
2022/10/07 01:12:48;;;;;;;10.40;7.37;;;14.90;36.50;;;;;;5034753;28;20470;-70
2022/10/07 01:15:23;;;;;;;13.00;8.10;;;14.90;36.60;;;;;;5016297;28;20486;-69
2022/10/07 01:17:58;;;;;;;12.13;7.80;;;14.90;36.40;;;;;;5015118;28;20511;-69
2022/10/07 01:20:33;;;;;;;13.90;7.93;;;14.90;36.30;;;;;;5021261;28;20545;-69
2022/10/07 01:23:47;;;;;;;13.30;7.97;;;14.90;36.40;;;;;;5029966;28;20465;-70
2022/10/07 01:26:44;;;;;;;13.37;8.33;;;14.90;36.50;;;;;;4999438;28;20475;-72
2022/10/07 01:29:14;;;;;;;13.10;8.90;;;14.80;36.70;;;;;;5022866;28;20451;-69
2022/10/07 01:31:47;;;;;;;11.70;7.80;;;14.80;36.40;;;;;;5027370;28;20474;-71
2022/10/07 01:34:15;;;;;;;10.73;8.00;;;14.80;36.30;;;;;;5025405;28;20475;-69
2022/10/07 01:36:46;;;;;;;11.57;7.53;;;14.80;36.50;;;;;;5025179;28;20474;-70
2022/10/07 01:39:15;;;;;;;10.13;7.30;;;14.80;36.50;;;;;;5018806;28;20466;-69
2022/10/07 01:41:43;;;;;;;10.43;6.97;;;14.80;36.70;;;;;;5024112;28;20454;-70
2022/10/07 01:44:11;;;;;;;10.50;7.50;;;14.80;36.70;;;;;;5027109;28;20471;-70
2022/10/07 01:46:38;;;;;;;12.83;7.83;;;14.80;36.80;;;;;;5027889;28;20491;-70
2022/10/07 01:49:05;;;;;;;14.00;9.70;;;14.80;36.60;;;;;;5031393;28;20510;-70
2022/10/07 01:51:36;;;;;;;12.90;8.60;;;14.80;36.40;;;;;;5018465;28;20515;-70
2022/10/07 01:54:13;;;;;;;11.73;8.23;;;14.80;36.70;;;;;;5024274;28;20467;-70
2022/10/07 01:56:53;;;;;;;14.77;8.90;;;14.80;36.70;;;;;;5037457;28;20520;-69
2022/10/07 01:59:45;;;;;;;13.03;8.57;;;14.80;36.80;;;;;;5023067;28;20469;-70
2022/10/07 02:02:20;;;;;;;12.07;8.30;;;14.80;36.70;;;;;;5029894;28;20478;-70
2022/10/07 02:04:58;;;;;;;14.03;7.70;;;14.80;36.80;;;;;;5026871;28;20477;-70
2022/10/07 02:07:34;;;;;;;10.07;7.40;;;14.80;36.90;;;;;;5025476;28;20459;-69
2022/10/07 02:10:12;;;;;;;9.90;8.10;;;14.80;36.80;;;;;;5020237;28;20459;-70
2022/10/07 02:12:44;;;;;;;11.43;8.47;;;14.80;36.90;;;;;;5024198;28;20519;-70
2022/10/07 02:15:16;;;;;;;13.30;7.90;;;14.80;36.90;;;;;;5022807;28;20487;-70
2022/10/07 02:17:49;;;;;;;12.03;8.10;;;14.80;36.80;;;;;;5021422;28;20455;-71
2022/10/07 02:20:19;;;;;;;9.20;7.10;;;14.80;36.70;;;;;;5025066;28;20474;-71
2022/10/07 02:22:47;;;;;;;10.33;7.00;;;14.80;36.50;;;;;;5018428;28;20470;-69
2022/10/07 02:25:17;;;;;;;11.70;7.70;;;14.80;36.50;;;;;;5022928;28;20489;-70
2022/10/07 02:27:48;;;;;;;12.60;7.67;;;14.80;36.50;;;;;;5022143;28;20464;-69
2022/10/07 02:30:18;;;;;;;12.17;8.00;;;14.80;36.50;;;;;;5023321;28;20458;-70
2022/10/07 02:32:48;;;;;;;12.57;6.83;;;14.80;36.50;;;;;;5027984;28;21125;-70
2022/10/07 02:35:22;;;;;;;12.80;7.97;;;14.80;36.70;;;;;;5022995;28;20483;-70
2022/10/07 02:37:50;;;;;;;11.17;8.33;;;14.80;36.70;;;;;;5018651;28;20470;-70
2022/10/07 02:40:18;;;;;;;11.30;7.20;;;14.80;36.60;;;;;;5013089;28;20495;-69
2022/10/07 02:42:53;;;;;;;10.07;6.73;;;14.80;36.80;;;;;;5026554;28;20462;-69
2022/10/07 02:45:25;;;;;;;13.03;9.13;;;14.80;36.90;;;;;;5024938;28;20478;-69
2022/10/07 02:47:58;;;;;;;16.67;8.57;;;14.80;36.60;;;;;;5019179;28;20465;-71
2022/10/07 02:50:30;;;;;;;13.07;9.87;;;14.80;36.50;;;;;;5019550;28;20971;-70
2022/10/07 02:53:00;;;;;;;13.00;8.30;;;14.80;36.40;;;;;;5026670;28;20451;-70
2022/10/07 02:55:27;;;;;;;14.83;10.80;;;14.80;36.30;;;;;;5025920;28;20863;-70
2022/10/07 02:58:00;;;;;;;12.57;9.07;;;14.80;36.60;;;;;;5025918;28;20581;-71
2022/10/07 03:00:29;;;;;;;10.63;7.97;;;14.80;36.70;;;;;;5019302;28;20978;-70
2022/10/07 03:02:57;;;;;;;10.40;6.87;;;14.80;36.70;;;;;;5021869;28;20464;-70
2022/10/07 03:05:25;;;;;;;10.97;7.90;;;14.80;36.60;;;;;;5018673;28;20482;-69
2022/10/07 03:07:56;;;;;;;11.33;7.00;;;14.80;36.70;;;;;;5022906;28;21128;-69
2022/10/07 03:10:25;;;;;;;9.50;6.80;;;14.80;36.60;;;;;;5011786;28;20464;-71
2022/10/07 03:12:52;;;;;;;10.30;6.90;;;14.80;36.60;;;;;;5026241;28;20455;-71
2022/10/07 03:15:20;;;;;;;9.30;7.40;;;14.80;36.60;;;;;;5019680;28;20482;-69
2022/10/07 03:17:47;;;;;;;16.17;8.40;;;14.80;36.70;;;;;;5023855;28;20467;-70
2022/10/07 03:20:14;;;;;;;10.47;7.40;;;14.80;36.60;;;;;;5024955;28;20465;-69
2022/10/07 03:22:42;;;;;;;10.40;7.80;;;14.70;36.80;;;;;;5026176;28;20537;-69
2022/10/07 03:25:09;;;;;;;10.50;8.13;;;14.70;37.00;;;;;;5028962;28;20479;-70
2022/10/07 03:27:37;;;;;;;16.73;9.23;;;14.70;36.90;;;;;;5032186;28;20465;-70
2022/10/07 03:30:05;;;;;;;9.60;8.27;;;14.70;37.10;;;;;;5021324;28;20463;-69
2022/10/07 03:32:33;;;;;;;12.33;7.90;;;14.70;37.00;;;;;;5030764;28;20560;-69
2022/10/07 03:35:00;;;;;;;14.17;7.57;;;14.70;37.00;;;;;;5035941;28;20475;-69
2022/10/07 03:37:29;;;;;;;9.93;7.40;;;14.70;36.90;;;;;;5026701;28;20488;-71
2022/10/07 03:39:56;;;;;;;12.60;7.30;;;14.70;37.20;;;;;;5018212;28;20473;-68
2022/10/07 03:42:23;;;;;;;12.23;7.40;;;14.70;37.40;;;;;;5030985;28;20459;-71
2022/10/07 03:44:50;;;;;;;9.77;6.23;;;14.70;37.30;;;;;;5029635;28;20545;-70
2022/10/07 03:47:17;;;;;;;11.80;8.07;;;14.70;37.20;;;;;;5032428;28;20458;-70
2022/10/07 03:49:45;;;;;;;13.87;7.90;;;14.70;37.10;;;;;;5029782;28;20459;-69
2022/10/07 03:52:12;;;;;;;8.43;6.60;;;14.70;37.10;;;;;;5019301;28;20507;-69
2022/10/07 03:54:39;;;;;;;10.30;7.17;;;14.70;37.10;;;;;;5022918;28;20486;-69
2022/10/07 03:57:48;;;;;;;10.87;6.53;;;14.70;37.20;;;;;;5021078;28;20463;-70
2022/10/07 03:59:52;;;;;;;11.27;7.60;;;14.70;37.30;;;;;;5020757;28;20534;-69
2022/10/07 04:02:22;;;;;;;9.50;6.10;;;14.70;37.30;;;;;;5023584;28;20471;-71
2022/10/07 04:04:51;;;;;;;10.03;6.43;;;14.70;37.30;;;;;;5019363;28;20478;-71
2022/10/07 04:07:18;;;;;;;10.20;6.70;;;14.70;37.10;;;;;;5023536;28;20463;-70
2022/10/07 04:09:45;;;;;;;10.33;6.73;;;14.70;37.10;;;;;;5026543;28;20848;-69
2022/10/07 04:12:12;;;;;;;13.00;8.30;;;14.70;37.10;;;;;;5039223;28;20466;-70
2022/10/07 04:14:39;;;;;;;12.67;8.37;;;14.70;37.20;;;;;;5021947;28;20487;-69
2022/10/07 04:17:05;;;;;;;8.87;6.57;;;14.70;37.20;;;;;;5023700;28;22491;-69
2022/10/07 04:19:32;;;;;;;11.30;7.20;;;14.60;37.30;;;;;;5022168;28;20467;-64
2022/10/07 04:22:00;;;;;;;14.13;7.50;;;14.60;37.20;;;;;;5015490;28;20587;-71
2022/10/07 04:24:27;;;;;;;12.90;7.20;;;14.70;37.30;;;;;;5014561;28;20459;-70
2022/10/07 04:26:54;;;;;;;10.57;7.47;;;14.70;37.30;;;;;;5011028;28;20462;-70
2022/10/07 04:29:20;;;;;;;12.90;8.27;;;14.70;37.20;;;;;;5015964;28;20466;-70
2022/10/07 04:31:47;;;;;;;12.93;9.20;;;14.60;37.20;;;;;;5017141;28;20470;-71
2022/10/07 04:34:14;;;;;;;14.20;8.77;;;14.60;37.40;;;;;;5017152;28;20978;-71
2022/10/07 04:36:41;;;;;;;10.70;7.90;;;14.60;37.50;;;;;;5024986;28;20629;-72
2022/10/07 04:39:09;;;;;;;16.37;8.20;;;14.60;37.50;;;;;;5025140;28;20470;-71
2022/10/07 04:41:36;;;;;;;12.67;8.67;;;14.60;37.60;;;;;;5024726;28;21476;-71
2022/10/07 04:44:02;;;;;;;13.80;9.60;;;14.60;37.60;;;;;;5006763;28;21035;-67
2022/10/07 04:46:29;;;;;;;15.40;9.30;;;14.60;37.50;;;;;;5002915;28;21002;-67
2022/10/07 04:48:56;;;;;;;15.10;9.70;;;14.60;37.40;;;;;;5005376;28;20463;-67
2022/10/07 04:51:23;;;;;;;11.50;8.07;;;14.60;38.00;;;;;;5004186;28;20557;-67
2022/10/07 04:53:52;;;;;;;12.00;7.30;;;14.60;37.70;;;;;;5006904;28;20459;-67
2022/10/07 04:56:21;;;;;;;12.83;7.27;;;14.60;37.70;;;;;;5004847;28;20484;-68
2022/10/07 04:58:47;;;;;;;15.70;7.80;;;14.60;37.70;;;;;;5002297;28;20455;-67
2022/10/07 05:01:14;;;;;;;13.83;7.77;;;14.50;37.70;;;;;;5003063;28;21007;-67
2022/10/07 05:03:41;;;;;;;11.27;7.47;;;14.50;37.70;;;;;;5002506;28;20468;-68
2022/10/07 05:06:09;;;;;;;9.97;6.33;;;14.50;38.00;;;;;;4998778;28;20482;-69
2022/10/07 05:08:36;;;;;;;9.53;7.60;;;14.50;38.10;;;;;;5003794;28;21207;-68
2022/10/07 05:11:03;;;;;;;10.10;7.90;;;14.50;38.10;;;;;;5003161;28;20486;-67
2022/10/07 05:13:33;;;;;;;10.87;7.30;;;14.40;38.00;;;;;;5003368;28;20483;-68
2022/10/07 05:16:01;;;;;;;11.70;7.47;;;14.50;38.10;;;;;;5005851;28;20495;-67
2022/10/07 05:18:30;;;;;;;11.93;7.37;;;14.40;38.20;;;;;;5003055;28;20455;-67
2022/10/07 05:20:57;;;;;;;11.10;7.10;;;14.40;38.20;;;;;;4999031;28;20955;-66
2022/10/07 05:23:27;;;;;;;13.00;7.40;;;14.40;38.30;;;;;;5004966;28;20460;-68
2022/10/07 05:25:58;;;;;;;10.50;7.70;;;14.40;38.30;;;;;;5003882;28;20864;-68
2022/10/07 05:28:26;;;;;;;11.17;7.60;;;14.30;38.50;;;;;;5005331;28;20466;-68
2022/10/07 05:31:04;;;;;;;12.17;7.63;;;14.30;38.40;;;;;;4998576;28;20479;-69
2022/10/07 05:33:31;;;;;;;13.33;7.83;;;14.40;38.40;;;;;;5003904;28;20459;-68
2022/10/07 05:35:58;;;;;;;10.90;7.90;;;14.30;38.30;;;;;;5002729;28;20549;-68
2022/10/07 05:38:25;;;;;;;12.93;7.30;;;14.30;38.50;;;;;;5004281;28;20462;-66
2022/10/07 05:40:58;;;;;;;12.03;8.20;;;14.30;38.40;;;;;;4999193;28;20617;-66
2022/10/07 05:43:25;;;;;;;16.73;7.30;;;14.30;38.90;;;;;;5001382;28;20475;-65
2022/10/07 05:45:59;;;;;;;11.70;7.13;;;14.30;38.70;;;;;;5003435;28;21007;-65
2022/10/07 05:48:28;;;;;;;13.50;8.00;;;14.30;38.70;;;;;;5008035;28;20466;-66
2022/10/07 05:50:56;;;;;;;9.20;6.07;;;14.30;38.60;;;;;;5002120;28;21197;-65
2022/10/07 05:53:22;;;;;;;11.00;7.50;;;14.30;38.70;;;;;;5000091;28;20481;-70
2022/10/07 05:55:49;;;;;;;9.00;7.17;;;14.30;38.80;;;;;;5000884;28;20494;-69
2022/10/07 05:58:16;;;;;;;10.53;5.80;;;14.30;38.80;;;;;;4997970;28;20538;-65
2022/10/07 06:00:52;;;;;;;15.57;6.67;;;14.30;38.80;;;;;;5005281;28;20489;-66
2022/10/07 06:03:19;;;;;;;11.80;7.30;;;14.20;38.60;;;;;;5015121;28;21041;-66
2022/10/07 06:05:47;;;;;;;12.27;7.33;;;14.30;39.30;;;;;;5014604;28;20482;-66
2022/10/07 06:08:14;;;;;;;8.63;5.90;;;14.40;38.50;;;;;;5028687;28;20462;-65
2022/10/07 06:13:25;;;;;;;9.07;6.37;;;14.50;38.50;;;;;;5023903;28;20521;-65
2022/10/07 06:15:52;;;;;;;9.60;5.80;;;14.50;38.40;;;;;;5024854;28;20593;-64
2022/10/07 06:18:19;;;;;;;9.07;5.90;;;14.60;38.40;;;;;;5023744;28;20462;-66
2022/10/07 06:20:54;;;;;;;10.43;6.57;;;14.60;38.30;;;;;;5022271;28;20468;-66
2022/10/07 06:23:21;;;;;;;11.03;5.80;;;14.70;38.20;;;;;;5017825;28;20526;-64
2022/10/07 06:25:54;;;;;;;8.93;5.93;;;14.80;37.90;;;;;;5022803;28;20475;-64
2022/10/07 06:28:21;;;;;;;9.30;6.30;;;14.90;37.70;;;;;;5005121;28;20912;-63
2022/10/07 06:30:47;;;;;;;7.97;5.77;;;14.90;37.40;;;;;;5001009;28;21041;-70
2022/10/07 06:33:14;;;;;;;13.67;6.30;;;15.10;37.40;;;;;;5000671;28;21002;-71
2022/10/07 06:35:41;;;;;;;7.87;5.27;;;15.30;37.30;;;;;;4992882;28;20495;-74
2022/10/07 06:38:09;;;;;;;8.53;5.47;;;15.50;36.80;;;;;;5001261;28;20479;-74
2022/10/07 06:40:36;;;;;;;9.20;5.10;;;15.80;36.40;;;;;;4997071;28;20463;-75
2022/10/07 06:43:03;;;;;;;12.37;5.70;;;16.10;35.80;;;;;;5002221;28;20463;-73
2022/10/07 06:45:31;;;;;;;7.43;5.67;;;16.40;34.60;;;;;;5005808;28;20495;-75
2022/10/07 06:47:58;;;;;;;8.73;5.80;;;16.80;33.90;;;;;;5006481;28;20463;-60
2022/10/07 06:50:25;;;;;;;8.87;5.50;;;17.20;32.10;;;;;;5004280;28;20546;-63
2022/10/07 06:52:51;;;;;;;12.03;5.73;;;17.60;31.80;;;;;;5007203;28;20468;-70
2022/10/07 06:55:20;;;;;;;11.90;6.63;;;18.10;29.00;;;;;;5005172;28;20510;-70
2022/10/07 06:57:46;;;;;;;11.07;5.80;;;18.30;27.50;;;;;;5008201;28;20835;-76
2022/10/07 07:00:14;;;;;;;10.37;6.07;;;18.50;25.90;;;;;;5007576;28;20467;-76
2022/10/07 07:02:41;;;;;;;8.17;6.00;;;18.90;25.00;;;;;;5005992;28;20591;-76
2022/10/07 07:05:08;;;;;;;9.87;5.80;;;19.40;23.50;;;;;;5002946;28;20483;-74
2022/10/07 07:07:35;;;;;;;8.10;6.00;;;19.70;23.00;;;;;;5007389;28;20498;-73
2022/10/07 07:10:03;;;;;;;8.63;6.40;;;20.00;21.80;;;;;;5003087;28;20470;-72
2022/10/07 07:12:32;;;;;;;8.70;6.13;;;20.40;20.70;;;;;;5011975;28;20468;-75
2022/10/07 07:14:59;;;;;;;11.17;7.33;;;20.80;19.10;;;;;;5005795;28;20483;-72
2022/10/07 07:17:25;;;;;;;9.23;6.80;;;21.20;17.80;;;;;;5004898;28;20522;-73
2022/10/07 07:19:52;;;;;;;9.67;6.50;;;21.70;16.80;;;;;;5010917;28;20485;-75
2022/10/07 07:22:19;;;;;;;8.57;6.57;;;22.30;16.00;;;;;;5025317;28;20493;-74
2022/10/07 07:24:46;;;;;;;9.67;7.20;;;23.20;14.10;;;;;;5019438;28;20501;-73
2022/10/07 07:27:13;;;;;;;8.70;6.50;;;24.00;12.60;;;;;;5025817;28;20509;-79
2022/10/07 07:29:42;;;;;;;7.60;6.20;;;24.70;10.90;;;;;;5022245;28;20466;-75
2022/10/07 07:32:08;;;;;;;9.90;6.17;;;25.50;9.50;;;;;;5017183;28;20467;-74
2022/10/07 07:34:37;;;;;;;9.27;6.40;;;26.50;7.50;;;;;;5021723;28;20471;-74
2022/10/07 07:37:04;;;;;;;9.40;5.27;;;27.60;6.10;;;;;;5016904;28;21016;-75
2022/10/07 07:39:31;;;;;;;10.70;5.63;;;28.40;4.40;;;;;;5022795;28;20455;-67
2022/10/07 07:41:57;;;;;;;10.27;5.60;;;29.10;3.40;;;;;;5020781;28;20542;-68
2022/10/07 07:44:24;;;;;;;15.90;5.50;;;29.70;2.10;;;;;;5017006;28;20473;-69
2022/10/07 07:46:53;;;;;;;7.60;5.13;;;29.50;1.80;;;;;;5015986;28;20451;-69
2022/10/07 07:49:21;;;;;;;8.87;6.10;;;29.10;2.30;;;;;;5017133;28;22474;-68
2022/10/07 07:51:47;;;;;;;10.03;6.87;;;29.00;2.20;;;;;;5019713;28;21126;-68
2022/10/07 07:54:15;;;;;;;10.80;5.87;;;28.30;3.00;;;;;;5025902;28;20462;-70
2022/10/07 07:56:42;;;;;;;10.53;6.87;;;27.80;3.60;;;;;;5017430;28;20963;-68
2022/10/07 07:59:10;;;;;;;10.10;7.77;;;27.80;3.50;;;;;;5019100;28;20463;-70
2022/10/07 08:01:37;;;;;;;11.90;8.13;;;27.70;3.90;;;;;;5023942;28;20485;-69
2022/10/07 08:04:06;;;;;;;17.80;9.40;;;27.40;4.30;;;;;;5021673;28;20548;-67
2022/10/07 08:06:33;;;;;;;12.03;8.73;;;27.80;4.10;;;;;;5019861;28;20471;-67
2022/10/07 08:09:00;;;;;;;10.10;8.20;;;28.90;2.60;;;;;;5018304;28;20960;-67
2022/10/07 08:11:27;;;;;;;11.77;8.47;;;29.70;1.20;;;;;;5027113;28;20454;-66
2022/10/07 08:13:55;;;;;;;10.30;7.90;;;30.70;1.00;;;;;;5040326;28;20455;-68
2022/10/07 08:16:23;;;;;;;13.37;8.70;;;31.40;1.00;;;;;;5041598;28;20549;-68
2022/10/07 08:18:51;;;;;;;12.27;9.60;;;30.30;1.00;;;;;;5025172;28;20467;-68
2022/10/07 08:21:21;;;;;;;13.93;10.13;;;28.60;1.00;;;;;;5019636;28;20550;-77
2022/10/07 08:23:51;;;;;;;16.00;10.60;;;27.20;3.50;;;;;;5023274;28;20474;-78
2022/10/07 08:26:18;;;;;;;11.13;9.23;;;26.00;5.60;;;;;;5019934;28;20472;-76
2022/10/07 08:28:45;;;;;;;15.23;11.37;;;25.00;7.50;;;;;;5013057;28;20470;-73
2022/10/07 08:31:13;;;;;;;17.37;12.20;;;24.30;9.00;;;;;;5020477;28;20471;-77
2022/10/07 08:33:43;;;;;;;14.50;12.40;;;23.60;10.00;;;;;;5018708;28;20566;-80
2022/10/07 08:36:12;;;;;;;17.77;12.80;;;23.10;11.10;;;;;;5017791;28;20490;-77
2022/10/07 08:38:41;;;;;;;15.73;13.23;;;22.70;12.00;;;;;;5015093;28;20467;-73
2022/10/07 08:41:23;;;;;;;15.67;12.90;;;22.30;13.00;;;;;;5015679;28;20828;-79
2022/10/07 08:43:51;;;;;;;17.43;14.27;;;21.90;13.90;;;;;;5018998;28;20482;-71
2022/10/07 08:46:21;;;;;;;19.67;13.87;;;21.70;14.70;;;;;;5014350;28;20480;-67
2022/10/07 08:48:52;;;;;;;21.07;14.77;;;21.30;15.10;;;;;;5006623;28;20471;-66
2022/10/07 08:51:22;;;;;;;18.20;14.30;;;21.10;15.70;;;;;;5016484;28;20549;-68
2022/10/07 08:53:52;;;;;;;17.80;14.10;;;20.90;16.30;;;;;;5012018;28;20984;-74
2022/10/07 08:56:22;;;;;;;20.00;15.43;;;20.70;16.50;;;;;;5018949;28;20488;-68
2022/10/07 08:59:03;;;;;;;16.20;12.47;;;20.50;17.10;;;;;;5010455;28;20468;-68
2022/10/07 09:01:38;;;;;;;21.30;15.37;;;20.30;17.50;;;;;;5007872;28;20486;-68
2022/10/07 09:04:16;;;;;;;17.53;15.07;;;20.10;18.30;;;;;;5021065;28;20498;-69
2022/10/07 09:06:49;;;;;;;20.90;16.20;;;19.90;18.70;;;;;;5015241;28;20488;-68
2022/10/07 09:09:22;;;;;;;20.53;16.00;;;19.80;19.20;;;;;;5014763;28;20459;-69
2022/10/07 09:11:50;;;;;;;20.33;16.33;;;19.80;19.60;;;;;;5012436;28;20455;-70
2022/10/07 09:14:25;;;;;;;20.53;14.77;;;20.00;19.80;;;;;;5013576;28;20483;-68
2022/10/07 09:16:54;;;;;;;17.60;13.50;;;20.40;19.30;;;;;;5014654;28;20485;-69
2022/10/07 09:19:29;;;;;;;16.67;12.50;;;20.60;18.60;;;;;;5008112;28;20521;-68
2022/10/07 09:22:01;;;;;;;19.33;13.77;;;20.70;18.30;;;;;;5008255;28;20485;-67
2022/10/07 09:24:31;;;;;;;19.13;14.20;;;20.80;18.20;;;;;;5008224;28;20461;-67
2022/10/07 09:27:00;;;;;;;18.03;15.33;;;21.20;17.70;;;;;;5014339;28;20921;-72
2022/10/07 09:29:30;;;;;;;19.40;14.03;;;21.60;17.00;;;;;;5016937;28;20824;-70
2022/10/07 09:31:57;;;;;;;22.00;13.90;;;22.10;16.20;;;;;;5006788;28;20479;-69
2022/10/07 09:34:27;;;;;;;16.00;13.50;;;22.20;15.40;;;;;;5016484;28;20513;-70
2022/10/07 09:37:17;;;;;;;18.03;13.70;;;22.40;15.30;;;;;;5016483;28;20541;-71
2022/10/07 09:39:47;;;;;;;18.57;13.43;;;24.50;12.60;;;;;;5016962;28;20727;-69
2022/10/07 09:42:28;;;;;;;18.63;14.17;;;24.60;10.90;;;;;;5012363;28;20464;-67
2022/10/07 09:44:57;;;;;;;17.33;13.20;;;24.20;11.10;;;;;;5012164;28;20728;-68
2022/10/07 09:47:27;;;;;;;16.77;13.80;;;23.60;12.10;;;;;;5014420;28;20499;-70
2022/10/07 09:49:58;;;;;;;16.80;14.03;;;23.30;12.50;;;;;;5019044;28;20459;-70
2022/10/07 09:52:27;;;;;;;18.53;13.40;;;23.00;13.40;;;;;;5013201;28;20890;-70
2022/10/07 09:54:57;;;;;;;20.40;15.50;;;22.90;13.90;;;;;;5009206;28;20570;-70
2022/10/07 09:57:30;;;;;;;17.50;14.00;;;22.80;14.10;;;;;;5011363;28;20575;-70
2022/10/07 10:00:22;;;;;;;17.17;13.07;;;22.90;13.80;;;;;;5013748;28;20554;-70
2022/10/07 10:02:51;;;;;;;17.53;13.50;;;22.70;13.60;;;;;;5012514;28;21278;-70
2022/10/07 10:05:21;;;;;;;19.37;13.50;;;22.30;14.30;;;;;;5014333;28;20479;-69
2022/10/07 10:07:52;;;;;;;17.40;12.73;;;21.90;14.90;;;;;;5007893;28;20466;-70
2022/10/07 10:10:23;;;;;;;18.33;13.60;;;21.70;15.60;;;;;;5017683;28;20462;-70
2022/10/07 10:12:52;;;;;;;19.63;15.40;;;21.50;16.10;;;;;;5013160;28;21004;-71
2022/10/07 10:15:26;;;;;;;19.50;14.73;;;21.70;16.00;;;;;;5011665;28;20568;-69
2022/10/07 10:17:55;;;;;;;18.40;13.77;;;21.70;16.10;;;;;;5017262;28;20483;-69
2022/10/07 10:20:32;;;;;;;16.83;12.80;;;21.50;16.30;;;;;;5016799;28;20468;-69
2022/10/07 10:23:00;;;;;;;17.93;13.80;;;21.40;16.60;;;;;;5020699;28;20460;-71
2022/10/07 10:28:34;;;;;;;17.90;12.70;;;21.00;16.80;;;;;;5002564;28;20469;-68
2022/10/07 10:31:09;;;;;;;17.57;12.97;;;20.80;17.40;;;;;;5014636;28;20474;-68
2022/10/07 10:33:43;;;;;;;18.60;14.30;;;20.70;18.10;;;;;;5019257;28;20460;-69
2022/10/07 10:36:18;;;;;;;20.53;14.60;;;20.70;18.40;;;;;;5018077;28;20484;-71
2022/10/07 10:38:50;;;;;;;18.57;13.80;;;20.60;18.30;;;;;;5025210;28;20457;-69
2022/10/07 10:41:27;;;;;;;18.93;14.20;;;20.50;18.60;;;;;;5021756;28;20475;-69
2022/10/07 10:44:18;;;;;;;18.90;14.70;;;20.40;19.40;;;;;;5022944;28;20458;-69
2022/10/07 10:46:53;;;;;;;18.37;13.93;;;20.20;18.90;;;;;;5016293;28;20462;-68
2022/10/07 10:49:28;;;;;;;24.53;15.80;;;20.30;19.00;;;;;;5025230;28;20462;-68
2022/10/07 10:52:20;;;;;;;19.43;14.80;;;20.40;18.50;;;;;;5021589;28;20466;-69
2022/10/07 10:55:00;;;;;;;21.43;14.80;;;20.40;18.70;;;;;;5014126;28;20917;-73
2022/10/07 10:57:38;;;;;;;22.23;13.70;;;20.30;18.90;;;;;;5011639;28;20872;-73
2022/10/07 11:00:10;;;;;;;20.80;15.07;;;20.20;19.50;;;;;;5020015;28;20459;-72
2022/10/07 11:03:06;;;;;;;19.20;14.57;;;20.10;19.60;;;;;;5021468;28;20477;-72
2022/10/07 11:05:35;;;;;;;19.30;13.60;;;20.00;19.90;;;;;;5014154;28;20994;-72
2022/10/07 11:08:09;;;;;;;20.27;14.57;;;19.80;20.10;;;;;;5016876;28;20887;-72
2022/10/07 11:10:40;;;;;;;20.17;13.70;;;19.70;20.80;;;;;;5020588;28;20466;-72
2022/10/07 11:13:34;;;;;;;21.27;15.60;;;19.60;21.20;;;;;;5017049;28;20918;-72
2022/10/07 11:16:06;;;;;;;17.17;14.00;;;19.60;21.30;;;;;;5013194;28;20487;-71
2022/10/07 11:18:38;;;;;;;16.97;12.63;;;19.50;21.60;;;;;;5026725;28;20591;-72
2022/10/07 11:21:11;;;;;;;18.90;14.03;;;19.50;21.90;;;;;;5025997;28;20463;-72
2022/10/07 11:23:45;;;;;;;17.80;13.57;;;19.40;22.00;;;;;;5019343;28;20467;-73
2022/10/07 11:26:18;;;;;;;15.33;12.40;;;19.40;22.20;;;;;;5024954;28;20941;-73
2022/10/07 11:28:49;;;;;;;15.80;12.50;;;19.30;22.50;;;;;;5022802;28;20451;-64
2022/10/07 11:31:24;;;;;;;18.10;14.13;;;19.30;22.70;;;;;;5021066;28;20475;-62
2022/10/07 11:34:00;;;;;;;20.23;14.43;;;19.30;22.60;;;;;;5016000;28;20454;-64
2022/10/07 11:36:36;;;;;;;16.80;13.33;;;19.20;22.80;;;;;;5020961;28;21046;-72
2022/10/07 11:39:02;;;;;;;19.67;13.53;;;19.20;23.30;;;;;;5021431;28;20826;-72
2022/10/07 11:41:33;;;;;;;16.20;12.73;;;19.20;23.30;;;;;;5022120;28;20495;-71
2022/10/07 11:44:08;;;;;;;19.30;13.70;;;19.20;24.10;;;;;;5014558;28;20471;-72
2022/10/07 11:46:39;;;;;;;19.30;14.77;;;19.20;23.70;;;;;;5021980;28;20486;-72
2022/10/07 11:49:12;;;;;;;18.30;14.20;;;19.20;23.90;;;;;;5024153;28;20693;-73
2022/10/07 11:51:52;;;;;;;23.60;15.07;;;19.20;24.10;;;;;;5033941;28;20471;-73
2022/10/07 11:54:23;;;;;;;20.93;14.50;;;19.20;24.30;;;;;;5028456;28;20515;-73
2022/10/07 11:56:52;;;;;;;17.47;13.77;;;19.20;24.20;;;;;;5020601;28;20474;-72
2022/10/07 11:59:35;;;;;;;20.60;15.20;;;19.20;24.20;;;;;;5014147;28;20463;-72
2022/10/07 12:02:03;;;;;;;22.60;14.13;;;19.10;24.40;;;;;;5013033;28;20489;-72
2022/10/07 12:04:39;;;;;;;22.20;14.97;;;19.10;24.30;;;;;;5019849;28;20459;-73
2022/10/07 12:07:56;;;;;;;19.30;14.60;;;19.10;24.60;;;;;;5017904;28;20841;-73
2022/10/07 12:10:32;;;;;;;21.17;16.77;;;19.10;24.80;;;;;;5022057;28;20486;-72
2022/10/07 12:13:39;;;;;;;17.73;14.60;;;19.10;24.40;;;;;;5018249;28;20529;-72
2022/10/07 12:16:42;;;;;;;18.40;14.07;;;19.00;24.60;;;;;;5023145;28;20948;-72
2022/10/07 12:19:15;;;;;;;17.90;14.20;;;19.00;24.70;;;;;;5007543;28;20514;-74
2022/10/07 12:22:17;;;;;;;19.70;12.93;;;19.00;24.80;;;;;;5021234;28;20466;-74
2022/10/07 12:24:46;;;;;;;19.93;13.63;;;18.90;24.70;;;;;;5007561;28;21061;-72
2022/10/07 12:27:17;;;;;;;19.67;13.50;;;18.90;24.70;;;;;;5015657;28;20456;-73
2022/10/07 12:29:57;;;;;;;15.13;12.47;;;18.90;24.80;;;;;;5020507;28;20469;-74
2022/10/07 12:32:55;;;;;;;19.73;13.73;;;18.80;25.00;;;;;;5026066;28;20510;-71
2022/10/07 12:35:41;;;;;;;17.20;12.40;;;18.80;24.90;;;;;;5009779;28;21209;-72
2022/10/07 12:38:15;;;;;;;16.67;12.10;;;18.70;25.10;;;;;;5023430;28;20487;-72
2022/10/07 12:40:46;;;;;;;15.57;11.53;;;18.70;25.30;;;;;;5015216;28;20474;-74
2022/10/07 12:43:31;;;;;;;16.23;12.63;;;18.70;25.30;;;;;;5023021;28;20464;-74
2022/10/07 12:45:58;;;;;;;18.83;13.00;;;18.60;25.40;;;;;;5015638;28;21011;-72
2022/10/07 12:48:32;;;;;;;17.30;11.80;;;18.60;25.60;;;;;;5006741;28;20987;-72
2022/10/07 12:51:00;;;;;;;18.57;13.07;;;18.60;25.60;;;;;;5015595;28;20463;-73
2022/10/07 12:53:30;;;;;;;16.43;12.57;;;18.60;25.40;;;;;;5019723;28;20826;-73
2022/10/07 12:55:57;;;;;;;16.87;13.10;;;18.60;25.40;;;;;;5012568;28;20880;-73
2022/10/07 13:02:01;;;;;;;22.30;11.70;;;18.50;25.90;;;;;;5019929;28;20554;-73
2022/10/07 13:04:54;;;;;;;17.40;12.20;;;18.50;26.20;;;;;;5022263;28;21000;-72